createdAt,value
2023-04-28T00:00:29.226Z,72.64
2023-04-28T00:02:59.560Z,72.64
2023-04-28T00:05:26.912Z,72.69
2023-04-28T00:07:54.052Z,72.75
2023-04-28T00:10:21.090Z,72.88
2023-04-28T00:12:48.047Z,72.81
2023-04-28T00:15:15.702Z,72.67
2023-04-28T00:17:43.457Z,72.83
2023-04-28T00:20:11.650Z,73.19
2023-04-28T00:22:38.531Z,73.40
2023-04-28T00:25:06.862Z,73.68
2023-04-28T00:27:36.697Z,73.79
2023-04-28T00:30:04.156Z,73.86
2023-04-28T00:32:31.227Z,73.90
2023-04-28T00:34:58.246Z,74.20
2023-04-28T00:37:25.673Z,74.37
2023-04-28T00:40:02.242Z,74.54
2023-04-28T00:42:29.187Z,74.49
2023-04-28T00:44:56.232Z,74.72
2023-04-28T00:47:23.319Z,74.73
2023-04-28T00:49:52.407Z,74.88
2023-04-28T00:52:19.350Z,74.99
2023-04-28T00:54:48.007Z,75.47
2023-04-28T00:57:15.056Z,75.38
2023-04-28T00:59:42.103Z,75.63
2023-04-28T01:02:08.932Z,75.84
2023-04-28T01:04:42.327Z,75.74
2023-04-28T01:07:09.598Z,75.97
2023-04-28T01:09:36.881Z,76.39
2023-04-28T01:12:05.059Z,76.34
2023-04-28T01:14:43.430Z,76.67
2023-04-28T01:17:10.641Z,76.63
2023-04-28T01:19:38.240Z,76.67
2023-04-28T01:22:05.543Z,76.48
2023-04-28T01:24:32.753Z,77.15
2023-04-28T01:27:03.175Z,77.42
2023-04-28T01:29:30.144Z,77.52
2023-04-28T01:31:57.431Z,77.70
2023-04-28T01:34:27.254Z,77.85
2023-04-28T01:36:54.121Z,78.12
2023-04-28T01:39:21.182Z,78.45
2023-04-28T01:41:48.047Z,78.51
2023-04-28T01:44:15.115Z,78.64
2023-04-28T01:46:42.301Z,78.76
2023-04-28T01:49:12.129Z,79.11
2023-04-28T01:51:41.800Z,78.88
2023-04-28T01:54:08.793Z,79.16
2023-04-28T01:56:38.724Z,79.20
2023-04-28T05:08:45.349Z,80.68
2023-04-28T08:12:08.325Z,42.48
2023-04-28T08:23:23.449Z,40.74
2023-04-28T08:30:10.829Z,39.78
2023-04-28T09:21:09.346Z,39.79
2023-04-28T09:28:22.452Z,40.12
2023-04-28T09:31:25.112Z,40.61
2023-04-28T09:38:45.066Z,40.64
2023-04-28T09:51:03.693Z,39.85
2023-04-28T09:53:30.697Z,39.23
2023-04-28T10:04:47.700Z,40.05
2023-04-28T11:19:37.118Z,36.79
2023-04-28T11:49:05.739Z,36.88
2023-04-28T12:23:05.145Z,36.09
2023-04-28T12:34:46.254Z,36.58
2023-04-28T12:41:58.730Z,35.88
2023-04-28T12:49:09.044Z,34.91
2023-04-28T12:56:20.262Z,35.23
2023-04-28T13:03:30.302Z,35.74
2023-04-28T13:10:41.275Z,34.99
2023-04-28T14:57:01.439Z,35.81
2023-04-28T15:35:33.162Z,37.05
2023-04-28T15:47:05.182Z,38.39
2023-04-28T16:04:31.203Z,39.91
2023-04-28T16:07:02.552Z,39.54
2023-04-28T16:09:30.092Z,39.01
2023-04-28T16:11:59.832Z,38.84
2023-04-28T16:14:27.062Z,38.95
2023-04-28T16:16:57.233Z,38.97
2023-04-28T16:19:26.153Z,38.98
2023-04-28T16:21:53.619Z,39.14
2023-04-28T16:24:22.511Z,39.12
2023-04-28T16:26:51.413Z,39.41
2023-04-28T16:29:18.856Z,39.39
2023-04-28T16:31:45.972Z,39.37
2023-04-28T16:34:13.969Z,39.76
2023-04-28T16:36:41.894Z,40.02
2023-04-28T16:39:09.635Z,40.22
2023-04-28T16:41:37.761Z,40.39
2023-04-28T16:44:05.887Z,40.66
2023-04-28T16:46:33.067Z,40.89
2023-04-28T16:49:00.549Z,41.30
2023-04-28T16:51:28.472Z,41.69
2023-04-28T16:53:55.882Z,41.94
2023-04-28T16:56:27.630Z,42.29
2023-04-28T16:58:54.698Z,42.55
2023-04-28T17:01:22.142Z,42.86
2023-04-28T17:03:53.175Z,42.96
2023-04-28T17:06:28.171Z,43.07
2023-04-28T17:08:55.265Z,43.36
2023-04-28T17:11:22.872Z,43.37
2023-04-28T17:13:50.997Z,43.51
2023-04-28T17:16:19.718Z,43.76
2023-04-28T17:18:47.839Z,43.97
2023-04-28T17:21:14.997Z,44.02
2023-04-28T17:23:42.784Z,44.20
2023-04-28T17:26:11.989Z,44.02
2023-04-28T17:28:41.456Z,44.30
2023-04-28T17:31:08.733Z,44.39
2023-04-28T17:33:35.882Z,44.65
2023-04-28T17:36:03.617Z,44.72
2023-04-28T17:38:31.390Z,44.94
2023-04-28T17:40:58.604Z,44.89
2023-04-28T17:43:26.055Z,44.97
2023-04-28T17:45:54.387Z,45.02
2023-04-28T17:48:23.161Z,44.85
2023-04-28T17:50:50.356Z,45.04
2023-04-28T17:53:18.188Z,44.76
2023-04-28T17:55:46.751Z,45.00
2023-04-28T17:58:13.802Z,45.04
2023-04-28T18:00:42.099Z,45.09
2023-04-28T18:03:09.175Z,45.18
2023-04-28T18:05:44.921Z,45.34
2023-04-28T18:08:13.974Z,45.45
2023-04-28T18:10:42.757Z,45.75
2023-04-28T18:13:10.685Z,45.96
2023-04-28T18:15:37.881Z,46.10
2023-04-28T18:18:06.871Z,46.15
2023-04-28T18:20:33.853Z,46.40
2023-04-28T18:23:02.196Z,46.47
2023-04-28T18:25:32.354Z,46.81
2023-04-28T18:27:59.970Z,46.91
2023-04-28T18:30:40.846Z,46.87
2023-04-28T18:33:08.748Z,47.05
2023-04-28T18:35:39.805Z,47.08
2023-04-28T18:38:07.921Z,47.30
2023-04-28T18:40:38.861Z,47.39
2023-04-28T18:43:10.576Z,47.71
2023-04-28T18:45:39.581Z,47.71
2023-04-28T18:48:08.006Z,47.82
2023-04-28T18:50:36.362Z,47.90
2023-04-28T18:53:04.531Z,47.73
2023-04-28T18:55:35.069Z,47.93
2023-04-28T18:58:02.367Z,48.26
2023-04-28T19:00:35.699Z,48.49
2023-04-28T19:03:04.513Z,48.86
2023-04-28T19:05:31.890Z,48.99
2023-04-28T19:07:58.816Z,49.03
2023-04-28T19:10:25.997Z,49.25
2023-04-28T19:12:53.214Z,49.33
2023-04-28T19:15:20.868Z,49.28
2023-04-28T19:17:48.048Z,49.39
2023-04-28T19:20:15.982Z,49.37
2023-04-28T19:22:46.776Z,49.29
2023-04-28T19:25:13.787Z,49.31
2023-04-28T19:27:41.440Z,49.57
2023-04-28T19:30:11.070Z,49.53
2023-04-28T19:32:39.874Z,49.81
2023-04-28T19:35:07.494Z,49.86
2023-04-28T19:37:35.366Z,49.90
2023-04-28T19:40:05.155Z,50.10
2023-04-28T19:42:33.744Z,50.14
2023-04-28T19:45:00.805Z,50.10
2023-04-28T19:47:33.079Z,50.23
2023-04-28T19:50:00.975Z,50.49
2023-04-28T19:52:28.904Z,50.55
2023-04-28T19:54:56.116Z,50.49
2023-04-28T19:57:24.373Z,50.92
2023-04-28T19:59:52.179Z,51.12
2023-04-28T20:02:21.323Z,51.33
2023-04-28T20:04:51.849Z,51.72
2023-04-28T20:07:21.927Z,51.99
2023-04-28T20:09:50.116Z,52.21
2023-04-28T20:12:19.729Z,52.46
2023-04-28T20:14:47.377Z,52.71
2023-04-28T20:17:14.358Z,52.79
2023-04-28T20:19:42.487Z,52.80
2023-04-28T20:22:10.048Z,53.09
2023-04-28T20:24:39.540Z,53.23
2023-04-28T20:27:06.602Z,53.35
2023-04-28T20:29:37.707Z,53.45
2023-04-28T20:32:05.010Z,53.65
2023-04-28T20:34:34.085Z,54.04
2023-04-28T20:37:03.694Z,54.47
2023-04-28T20:39:31.158Z,54.96
2023-04-28T20:41:59.983Z,55.40
2023-04-28T20:44:27.949Z,55.84
2023-04-28T20:46:55.526Z,56.28
2023-04-28T20:49:22.809Z,56.81
2023-04-28T20:51:51.215Z,57.08
2023-04-28T20:54:18.961Z,57.48
2023-04-28T20:56:45.952Z,57.77
2023-04-28T20:59:14.822Z,57.97
2023-04-28T21:01:41.938Z,58.17
2023-04-28T21:04:10.098Z,58.39
2023-04-28T21:06:38.513Z,58.54
2023-04-28T21:09:05.546Z,58.63
2023-04-28T21:11:32.823Z,58.94
2023-04-28T21:14:00.169Z,59.22
2023-04-28T21:16:27.883Z,59.58
2023-04-28T21:18:55.166Z,59.80
2023-04-28T21:21:22.977Z,60.23
2023-04-28T21:23:50.916Z,60.40
2023-04-28T21:26:20.508Z,60.63
2023-04-28T21:28:47.925Z,60.80
2023-04-28T21:31:14.827Z,61.01
2023-04-28T21:33:44.805Z,61.14
2023-04-28T21:36:12.113Z,61.38
2023-04-28T21:38:42.706Z,61.68
2023-04-28T21:41:12.614Z,61.79
2023-04-28T21:43:40.699Z,62.04
2023-04-28T21:46:08.018Z,62.02
2023-04-28T21:48:37.534Z,62.10
2023-04-28T21:51:05.016Z,62.63
2023-04-28T21:53:32.967Z,62.73
2023-04-28T21:56:00.888Z,62.80
2023-04-28T21:58:28.205Z,62.80
2023-04-28T22:00:55.364Z,62.73
2023-04-28T22:03:23.024Z,62.65
2023-04-28T22:05:51.382Z,62.93
2023-04-28T22:08:19.083Z,63.20
2023-04-28T22:10:47.013Z,63.44
2023-04-28T22:13:16.715Z,63.52
2023-04-28T22:15:44.027Z,63.73
2023-04-28T22:18:12.773Z,64.08
2023-04-28T22:20:40.575Z,64.04
2023-04-28T22:23:08.408Z,64.40
2023-04-28T22:25:35.948Z,64.58
2023-04-28T22:28:05.910Z,64.45
2023-04-28T22:30:33.122Z,64.99
2023-04-28T22:33:00.283Z,64.93
2023-04-28T22:35:28.276Z,65.09
2023-04-28T22:37:56.917Z,64.97
2023-04-28T22:40:23.913Z,65.32
2023-04-28T22:50:50.269Z,65.47
2023-04-28T22:53:18.211Z,65.53
2023-04-28T22:55:45.880Z,65.45
2023-04-28T22:58:12.905Z,65.68
2023-04-28T23:00:39.826Z,65.69
2023-04-28T23:03:06.935Z,65.98
2023-04-28T23:05:40.367Z,65.89
2023-04-28T23:08:07.901Z,66.03
2023-04-28T23:10:35.012Z,66.49
2023-04-28T23:13:02.060Z,66.67
2023-04-28T23:15:29.821Z,66.58
2023-04-28T23:17:56.846Z,66.68
2023-04-28T23:20:24.953Z,66.54
2023-04-28T23:22:52.714Z,66.47
2023-04-28T23:25:19.703Z,66.80
2023-04-28T23:27:48.675Z,66.89
2023-04-28T23:30:16.086Z,66.97
2023-04-28T23:32:44.174Z,67.23
2023-04-28T23:35:11.216Z,67.64
2023-04-28T23:37:38.984Z,67.86
2023-04-28T23:40:06.821Z,68.04
2023-04-28T23:42:33.994Z,68.29
2023-04-28T23:45:01.677Z,68.28
2023-04-28T23:47:30.780Z,68.27
2023-04-28T23:49:59.009Z,68.51
2023-04-28T23:52:27.233Z,68.72
2023-04-28T23:54:54.055Z,68.74
2023-04-28T23:57:21.250Z,68.93
